createdAt,value
2022-09-29T00:00:18.336Z,99.90
2022-09-29T00:02:45.056Z,99.90
2022-09-29T00:05:11.916Z,99.90
2022-09-29T00:07:38.704Z,99.90
2022-09-29T00:10:05.744Z,99.90
2022-09-29T00:12:32.381Z,99.90
2022-09-29T00:14:59.070Z,99.90
2022-09-29T00:17:25.790Z,99.90
2022-09-29T00:19:52.423Z,99.90
2022-09-29T00:22:19.132Z,99.90
2022-09-29T00:24:47.743Z,99.90
2022-09-29T00:27:15.922Z,99.90
2022-09-29T00:29:42.828Z,99.90
2022-09-29T00:32:09.769Z,99.90
2022-09-29T00:34:38.025Z,99.90
2022-09-29T00:37:05.198Z,99.90
2022-09-29T00:39:31.940Z,99.90
2022-09-29T00:41:58.780Z,99.90
2022-09-29T00:44:44.493Z,99.90
2022-09-29T00:47:15.501Z,99.90
2022-09-29T00:49:51.766Z,99.90
2022-09-29T00:52:36.625Z,99.90
2022-09-29T00:55:11.037Z,99.90
2022-09-29T00:57:49.239Z,99.90
2022-09-29T01:00:16.787Z,99.90
2022-09-29T01:02:48.766Z,99.90
2022-09-29T01:05:21.036Z,99.90
2022-09-29T01:07:47.993Z,99.90
2022-09-29T01:10:17.198Z,99.90
2022-09-29T01:12:46.482Z,99.90
2022-09-29T01:15:19.463Z,99.90
2022-09-29T01:17:47.591Z,99.90
2022-09-29T01:20:22.115Z,99.90
2022-09-29T01:23:15.167Z,99.90
2022-09-29T01:26:07.011Z,99.90
2022-09-29T01:29:01.480Z,99.90
2022-09-29T01:31:38.066Z,99.90
2022-09-29T01:34:23.076Z,99.90
2022-09-29T01:37:22.331Z,99.90
2022-09-29T01:40:11.272Z,99.90
2022-09-29T01:43:01.518Z,99.90
2022-09-29T01:45:39.150Z,99.90
2022-09-29T01:48:11.968Z,99.90
2022-09-29T01:50:46.901Z,99.90
2022-09-29T01:53:20.434Z,99.90
2022-09-29T01:55:51.271Z,99.90
2022-09-29T01:58:36.479Z,99.90
2022-09-29T02:01:07.706Z,99.90
2022-09-29T02:03:41.593Z,99.90
2022-09-29T02:06:17.287Z,99.90
2022-09-29T02:08:48.634Z,99.90
2022-09-29T02:11:17.627Z,99.90
2022-09-29T02:13:48.082Z,99.90
2022-09-29T02:16:16.718Z,99.90
2022-09-29T02:19:00.528Z,99.90
2022-09-29T02:21:28.156Z,99.90
2022-09-29T02:23:55.762Z,99.90
2022-09-29T02:26:24.370Z,99.90
2022-09-29T02:28:52.379Z,99.90
2022-09-29T02:31:19.781Z,99.90
2022-09-29T02:33:46.485Z,99.90
2022-09-29T02:36:31.141Z,99.90
2022-09-29T02:39:35.549Z,99.90
2022-09-29T02:42:11.102Z,99.90
2022-09-29T02:44:51.460Z,99.90
2022-09-29T02:47:18.110Z,99.90
2022-09-29T02:50:03.796Z,99.90
2022-09-29T02:52:56.139Z,99.90
2022-09-29T02:55:59.815Z,99.90
2022-09-29T02:58:38.872Z,99.90
2022-09-29T03:01:07.381Z,99.90
2022-09-29T03:03:34.495Z,99.90
2022-09-29T03:06:01.418Z,99.90
2022-09-29T03:08:28.155Z,99.90
2022-09-29T03:10:54.816Z,99.90
2022-09-29T03:13:21.645Z,99.90
2022-09-29T03:15:48.403Z,99.90
2022-09-29T03:18:16.985Z,99.90
2022-09-29T03:20:43.778Z,99.90
2022-09-29T03:23:10.576Z,99.90
2022-09-29T03:25:37.248Z,99.90
2022-09-29T03:28:03.976Z,99.90
2022-09-29T03:30:31.061Z,99.90
2022-09-29T03:32:57.749Z,99.90
2022-09-29T03:35:24.582Z,99.90
2022-09-29T03:37:51.453Z,99.90
2022-09-29T03:40:18.203Z,99.90
2022-09-29T03:42:47.374Z,99.90
2022-09-29T03:45:14.219Z,99.90
2022-09-29T03:47:40.913Z,99.90
2022-09-29T03:50:08.090Z,99.90
2022-09-29T03:52:34.871Z,99.90
2022-09-29T03:55:01.636Z,99.90
2022-09-29T03:57:28.384Z,99.90
2022-09-29T03:59:56.072Z,99.90
2022-09-29T04:02:23.278Z,99.90
2022-09-29T04:04:51.008Z,99.90
2022-09-29T04:07:17.728Z,99.90
2022-09-29T04:09:44.413Z,99.90
2022-09-29T04:12:11.213Z,99.90
2022-09-29T04:14:37.972Z,99.90
2022-09-29T04:17:04.695Z,99.90
2022-09-29T04:19:32.363Z,99.90
2022-09-29T04:21:59.159Z,99.90
2022-09-29T04:24:25.806Z,99.90
2022-09-29T04:26:52.479Z,99.90
2022-09-29T04:29:19.417Z,99.90
2022-09-29T04:31:46.261Z,99.90
2022-09-29T04:34:12.950Z,99.90
2022-09-29T04:36:39.801Z,99.90
2022-09-29T04:39:06.844Z,99.90
2022-09-29T04:41:35.986Z,99.90
2022-09-29T04:44:02.822Z,99.90
2022-09-29T04:46:29.850Z,99.90
2022-09-29T04:48:56.540Z,99.90
2022-09-29T04:51:23.297Z,99.90
2022-09-29T04:53:49.948Z,99.90
2022-09-29T04:56:16.599Z,99.90
2022-09-29T04:58:43.312Z,99.90
2022-09-29T05:01:15.163Z,99.90
2022-09-29T05:03:42.574Z,99.90
2022-09-29T05:06:10.336Z,99.90
2022-09-29T05:08:37.015Z,99.90
2022-09-29T05:11:06.466Z,99.90
2022-09-29T05:13:33.299Z,99.90
2022-09-29T05:16:00.346Z,99.90
2022-09-29T05:18:27.654Z,99.90
2022-09-29T05:21:15.766Z,99.90
2022-09-29T05:23:42.663Z,99.90
2022-09-29T05:26:13.031Z,99.90
2022-09-29T05:28:44.541Z,99.90
2022-09-29T05:31:12.071Z,99.90
2022-09-29T05:33:39.247Z,99.90
2022-09-29T05:36:07.416Z,99.90
2022-09-29T05:38:35.698Z,99.90
2022-09-29T05:41:10.996Z,99.90
2022-09-29T05:43:38.405Z,99.90
2022-09-29T05:46:07.216Z,99.90
2022-09-29T05:48:35.047Z,99.90
2022-09-29T05:51:14.088Z,99.90
2022-09-29T05:53:41.542Z,99.90
2022-09-29T05:56:19.859Z,99.90
2022-09-29T05:58:46.773Z,99.90
2022-09-29T06:01:16.453Z,99.90
2022-09-29T06:03:43.267Z,99.90
2022-09-29T06:06:12.806Z,99.90
2022-09-29T06:08:40.271Z,99.90
2022-09-29T06:11:28.695Z,99.90
2022-09-29T06:13:55.950Z,99.90
2022-09-29T06:16:26.175Z,99.90
2022-09-29T06:18:53.516Z,99.90
2022-09-29T06:21:24.377Z,99.90
2022-09-29T06:23:52.450Z,99.90
2022-09-29T06:26:24.001Z,99.90
2022-09-29T06:28:52.080Z,99.90
2022-09-29T06:31:21.291Z,99.90
2022-09-29T06:33:48.121Z,99.90
2022-09-29T06:36:44.601Z,99.90
2022-09-29T06:39:13.980Z,99.90
2022-09-29T06:41:41.559Z,99.90
2022-09-29T06:44:09.071Z,99.90
2022-09-29T06:46:35.859Z,99.90
2022-09-29T06:49:02.628Z,99.90
2022-09-29T06:51:41.717Z,99.90
2022-09-29T06:54:13.288Z,99.90
2022-09-29T06:56:40.295Z,99.90
2022-09-29T06:59:07.531Z,99.90
2022-09-29T07:01:34.770Z,99.90
2022-09-29T07:04:02.435Z,99.90
2022-09-29T07:06:30.074Z,99.90
2022-09-29T07:08:58.738Z,99.90
2022-09-29T07:11:26.640Z,99.90
2022-09-29T07:13:55.227Z,99.90
2022-09-29T07:16:24.224Z,99.90
2022-09-29T07:18:52.005Z,99.90
2022-09-29T07:21:19.144Z,99.90
2022-09-29T07:23:47.240Z,99.90
2022-09-29T07:26:16.712Z,99.90
2022-09-29T07:28:44.694Z,99.90
2022-09-29T07:31:18.053Z,99.90
2022-09-29T07:33:46.452Z,99.90
2022-09-29T07:36:14.814Z,99.90
2022-09-29T07:38:42.488Z,99.90
2022-09-29T07:41:11.698Z,99.90
2022-09-29T07:43:39.895Z,99.90
2022-09-29T07:46:07.974Z,99.90
2022-09-29T07:48:35.421Z,99.90
2022-09-29T07:51:20.816Z,99.90
2022-09-29T07:53:47.866Z,99.90
2022-09-29T07:56:20.566Z,99.90
2022-09-29T07:58:49.894Z,99.90
2022-09-29T08:01:18.087Z,99.90
2022-09-29T08:03:49.826Z,99.90
2022-09-29T08:06:16.669Z,99.90
2022-09-29T08:08:55.435Z,99.90
2022-09-29T08:11:31.953Z,99.90
2022-09-29T08:14:00.027Z,99.90
2022-09-29T08:16:27.106Z,99.90
2022-09-29T08:18:53.980Z,99.90
2022-09-29T08:21:20.720Z,99.90
2022-09-29T08:23:48.145Z,99.90
2022-09-29T08:26:27.485Z,99.90
2022-09-29T08:29:07.698Z,99.90
2022-09-29T08:31:37.301Z,99.90
2022-09-29T08:34:04.400Z,99.90
2022-09-29T08:36:31.223Z,99.90
2022-09-29T08:38:58.067Z,99.90
2022-09-29T08:41:52.099Z,99.90
2022-09-29T08:44:39.242Z,99.90
2022-09-29T08:47:10.831Z,99.90
2022-09-29T08:49:40.667Z,99.90
2022-09-29T08:52:24.689Z,99.90
2022-09-29T08:54:57.423Z,99.90
2022-09-29T08:57:25.529Z,99.90
2022-09-29T08:59:57.571Z,99.90
2022-09-29T09:02:42.415Z,99.90
2022-09-29T09:05:30.796Z,99.90
2022-09-29T09:08:32.577Z,99.90
2022-09-29T09:11:23.563Z,99.90
2022-09-29T09:14:20.788Z,99.90
2022-09-29T09:17:30.841Z,99.90
2022-09-29T09:20:16.283Z,99.90
2022-09-29T09:22:55.699Z,99.90
2022-09-29T09:25:28.194Z,99.90
2022-09-29T09:28:20.062Z,99.90
2022-09-29T09:30:53.597Z,99.90
2022-09-29T09:33:34.150Z,99.90
2022-09-29T09:36:08.818Z,99.90
2022-09-29T09:39:01.279Z,99.90
2022-09-29T09:41:35.531Z,99.90
2022-09-29T09:44:16.167Z,99.90
2022-09-29T09:46:51.412Z,99.90
2022-09-29T09:49:23.513Z,99.90
2022-09-29T09:51:59.644Z,99.90
2022-09-29T09:54:47.683Z,99.90
2022-09-29T09:57:27.627Z,99.90
2022-09-29T10:00:13.841Z,99.90
2022-09-29T10:02:52.539Z,99.90
2022-09-29T10:05:39.469Z,99.90
2022-09-29T10:08:11.215Z,99.90
2022-09-29T10:10:51.323Z,99.90
2022-09-29T10:13:30.658Z,99.90
2022-09-29T10:16:15.406Z,99.90
2022-09-29T10:18:46.360Z,99.90
2022-09-29T10:21:43.360Z,99.90
2022-09-29T10:24:26.983Z,99.90
2022-09-29T10:26:56.272Z,99.90
2022-09-29T10:29:28.334Z,99.90
2022-09-29T10:32:10.436Z,99.90
2022-09-29T10:34:40.939Z,99.90
2022-09-29T10:37:24.731Z,99.90
2022-09-29T10:40:01.776Z,99.90
2022-09-29T10:42:57.998Z,99.90
2022-09-29T10:45:29.969Z,99.90
2022-09-29T10:48:00.422Z,99.90
2022-09-29T10:50:36.820Z,99.90
2022-09-29T10:53:22.273Z,99.90
2022-09-29T10:55:51.959Z,99.90
2022-09-29T10:58:45.432Z,99.90
2022-09-29T11:01:19.584Z,99.90
2022-09-29T11:03:54.211Z,99.90
2022-09-29T11:06:50.264Z,99.90
2022-09-29T11:09:17.007Z,99.90
2022-09-29T11:12:02.457Z,99.90
2022-09-29T11:14:41.112Z,99.90
2022-09-29T11:17:52.045Z,99.90
2022-09-29T11:20:20.781Z,99.90
2022-09-29T11:23:26.570Z,99.90
2022-09-29T11:26:19.197Z,99.90
2022-09-29T11:29:28.881Z,99.90
2022-09-29T11:31:58.347Z,99.90
2022-09-29T11:34:53.358Z,99.90
2022-09-29T11:37:34.980Z,99.90
2022-09-29T11:40:21.184Z,99.90
2022-09-29T11:43:11.274Z,99.90
2022-09-29T11:45:58.620Z,99.90
2022-09-29T11:48:54.405Z,99.90
2022-09-29T11:51:42.222Z,99.90
2022-09-29T11:54:37.393Z,99.90
2022-09-29T11:57:37.304Z,99.90
2022-09-29T12:00:14.140Z,99.90
2022-09-29T12:02:56.557Z,99.90
2022-09-29T12:06:01.251Z,99.90
2022-09-29T12:08:49.834Z,99.90
2022-09-29T12:11:59.850Z,99.90
2022-09-29T12:14:28.674Z,99.90
2022-09-29T12:17:01.628Z,99.90
2022-09-29T12:19:30.916Z,99.90
2022-09-29T12:22:02.084Z,99.90
2022-09-29T12:24:42.631Z,99.90
2022-09-29T12:27:15.651Z,99.80
2022-09-29T12:29:48.187Z,99.90
2022-09-29T12:32:28.603Z,99.50
2022-09-29T12:35:04.623Z,99.90
2022-09-29T12:37:56.542Z,99.90
2022-09-29T12:40:43.877Z,99.50
2022-09-29T12:43:21.522Z,99.90
2022-09-29T12:46:06.264Z,98.90
2022-09-29T12:48:54.221Z,99.90
2022-09-29T12:51:24.737Z,99.90
2022-09-29T12:54:13.891Z,99.90
2022-09-29T12:56:52.526Z,99.90
2022-09-29T13:00:01.350Z,99.90
2022-09-29T13:02:57.757Z,99.90
2022-09-29T13:05:39.495Z,99.90
2022-09-29T13:08:31.333Z,99.60
2022-09-29T13:11:33.868Z,99.80
2022-09-29T13:14:38.124Z,99.90
2022-09-29T13:17:13.158Z,99.90
2022-09-29T13:20:05.258Z,99.90
2022-09-29T13:23:06.492Z,99.90
2022-09-29T13:25:33.107Z,99.90
2022-09-29T13:28:00.714Z,99.90
2022-09-29T13:30:45.541Z,99.90
2022-09-29T13:33:30.854Z,99.90
2022-09-29T13:35:58.442Z,99.90
2022-09-29T13:38:28.126Z,99.90
2022-09-29T13:41:32.484Z,99.90
2022-09-29T13:43:59.182Z,99.90
2022-09-29T13:46:31.992Z,99.90
2022-09-29T13:49:13.784Z,99.90
2022-09-29T13:51:55.673Z,99.80
2022-09-29T13:54:28.388Z,99.90
2022-09-29T13:57:13.410Z,99.90
2022-09-29T13:59:42.151Z,99.90
2022-09-29T14:02:33.145Z,99.90
2022-09-29T14:05:00.358Z,99.90
2022-09-29T14:07:39.838Z,99.90
2022-09-29T14:10:27.414Z,99.80
2022-09-29T14:13:19.772Z,98.50
2022-09-29T14:16:11.346Z,97.90
2022-09-29T14:18:51.500Z,98.00
2022-09-29T14:21:51.207Z,97.80
2022-09-29T14:24:37.160Z,98.20
2022-09-29T14:27:37.869Z,99.20
2022-09-29T14:30:13.355Z,98.80
2022-09-29T14:32:52.213Z,98.60
2022-09-29T14:35:30.760Z,98.70
2022-09-29T14:38:03.549Z,98.70
2022-09-29T14:40:30.995Z,99.10
2022-09-29T14:43:11.711Z,98.70
2022-09-29T14:46:42.730Z,98.60
2022-09-29T14:50:02.675Z,99.40
2022-09-29T14:52:57.330Z,98.90
2022-09-29T14:55:52.752Z,98.80
2022-09-29T14:58:58.801Z,99.00
2022-09-29T15:01:30.464Z,99.70
2022-09-29T15:04:05.434Z,99.60
2022-09-29T15:06:32.209Z,99.20
2022-09-29T15:09:17.061Z,99.70
2022-09-29T15:11:49.917Z,99.90
2022-09-29T15:14:28.194Z,99.90
2022-09-29T15:17:25.149Z,99.90
2022-09-29T15:20:26.553Z,99.90
2022-09-29T15:23:23.908Z,99.90
2022-09-29T15:25:56.220Z,99.90
2022-09-29T15:28:35.644Z,99.90
2022-09-29T15:31:17.064Z,99.90
2022-09-29T15:33:44.806Z,99.90
2022-09-29T15:36:26.395Z,99.90
2022-09-29T15:39:00.467Z,99.90
2022-09-29T15:41:33.168Z,99.90
2022-09-29T15:44:01.265Z,99.90
2022-09-29T15:46:35.965Z,99.90
2022-09-29T15:49:10.282Z,99.90
2022-09-29T15:51:37.742Z,99.90
2022-09-29T15:54:10.304Z,99.90
2022-09-29T15:56:56.768Z,99.90
2022-09-29T16:00:03.631Z,99.90
2022-09-29T16:02:38.663Z,99.90
2022-09-29T16:05:14.174Z,99.90
2022-09-29T16:07:49.203Z,99.90
2022-09-29T16:10:19.044Z,99.90
2022-09-29T16:12:53.173Z,99.90
2022-09-29T16:15:33.937Z,99.90
2022-09-29T16:18:06.240Z,99.90
2022-09-29T16:20:34.773Z,99.90
2022-09-29T16:23:20.205Z,99.90
2022-09-29T16:26:07.012Z,99.90
2022-09-29T16:28:36.223Z,99.90
2022-09-29T16:31:18.380Z,99.90
2022-09-29T16:33:53.903Z,99.90
2022-09-29T16:36:24.693Z,99.90
2022-09-29T16:38:53.716Z,99.90
2022-09-29T16:41:37.888Z,99.90
2022-09-29T16:44:09.262Z,99.90
2022-09-29T16:46:55.049Z,99.90
2022-09-29T16:49:32.294Z,99.90
2022-09-29T16:52:10.973Z,99.90
2022-09-29T16:54:46.342Z,99.90
2022-09-29T16:57:23.995Z,99.90
2022-09-29T16:59:56.450Z,99.90
2022-09-29T17:02:24.618Z,99.90
2022-09-29T17:04:52.241Z,99.90
2022-09-29T17:07:21.633Z,99.90
2022-09-29T17:09:52.554Z,99.90
2022-09-29T17:12:19.437Z,99.90
2022-09-29T17:14:46.766Z,99.90
2022-09-29T17:17:27.984Z,99.90
2022-09-29T17:19:56.553Z,99.90
2022-09-29T17:22:36.843Z,99.90
2022-09-29T17:25:05.527Z,99.90
2022-09-29T17:27:51.173Z,99.90
2022-09-29T17:30:22.764Z,99.90
2022-09-29T17:32:52.598Z,99.90
2022-09-29T17:35:21.411Z,99.90
2022-09-29T17:37:48.446Z,99.90
2022-09-29T17:40:34.131Z,99.90
2022-09-29T17:43:01.469Z,99.90
2022-09-29T17:45:30.056Z,99.90
2022-09-29T17:47:56.868Z,99.90
2022-09-29T17:50:45.588Z,99.90
2022-09-29T17:53:14.111Z,99.90
2022-09-29T17:55:42.319Z,99.90
2022-09-29T17:58:12.770Z,99.90
2022-09-29T18:00:40.464Z,99.90
2022-09-29T18:03:12.813Z,99.90
2022-09-29T18:05:41.702Z,99.90
2022-09-29T18:08:14.661Z,99.90
2022-09-29T18:10:59.174Z,99.90
2022-09-29T18:13:27.968Z,99.90
2022-09-29T18:15:56.139Z,99.90
2022-09-29T18:18:23.451Z,99.90
2022-09-29T18:20:50.854Z,99.90
2022-09-29T18:23:19.391Z,99.90
2022-09-29T18:25:50.321Z,99.90
2022-09-29T18:28:18.371Z,99.90
2022-09-29T18:30:48.643Z,99.90
2022-09-29T18:33:17.545Z,99.90
2022-09-29T18:35:46.642Z,99.90
2022-09-29T18:38:13.463Z,99.90
2022-09-29T18:40:40.493Z,99.90
2022-09-29T18:43:07.801Z,99.90
2022-09-29T18:45:41.632Z,99.90
2022-09-29T18:48:12.329Z,99.90
2022-09-29T18:50:45.063Z,99.90
2022-09-29T18:53:14.562Z,99.90
2022-09-29T18:55:41.726Z,99.90
2022-09-29T18:58:18.222Z,99.90
2022-09-29T19:00:54.950Z,99.90
2022-09-29T19:03:23.631Z,99.90
2022-09-29T19:05:51.147Z,99.90
2022-09-29T19:08:19.155Z,99.90
2022-09-29T19:10:52.245Z,99.90
2022-09-29T19:13:19.754Z,99.90
2022-09-29T19:15:47.149Z,99.90
2022-09-29T19:18:23.684Z,99.90
2022-09-29T19:20:52.123Z,99.90
2022-09-29T19:23:21.600Z,99.90
2022-09-29T19:25:50.058Z,99.90
2022-09-29T19:28:18.413Z,99.90
2022-09-29T19:30:45.926Z,99.90
2022-09-29T19:33:16.692Z,99.90
2022-09-29T19:35:51.020Z,99.90
2022-09-29T19:38:18.776Z,99.90
2022-09-29T19:40:46.698Z,99.90
2022-09-29T19:43:14.371Z,99.90
2022-09-29T19:45:41.941Z,99.90
2022-09-29T19:48:14.100Z,99.90
2022-09-29T19:50:59.941Z,99.90
2022-09-29T19:53:27.006Z,99.90
2022-09-29T19:55:53.658Z,99.90
2022-09-29T19:58:21.151Z,99.90
2022-09-29T20:00:47.953Z,99.90
2022-09-29T20:03:15.280Z,99.90
2022-09-29T20:05:42.079Z,99.90
2022-09-29T20:08:11.503Z,99.90
2022-09-29T20:10:38.396Z,99.90
2022-09-29T20:13:05.090Z,99.90
2022-09-29T20:15:31.824Z,99.90
2022-09-29T20:17:58.636Z,99.90
2022-09-29T20:20:25.684Z,99.90
2022-09-29T20:22:53.417Z,99.90
2022-09-29T20:25:21.095Z,99.90
2022-09-29T20:27:51.167Z,99.90
2022-09-29T20:30:20.665Z,99.90
2022-09-29T20:32:47.959Z,99.90
2022-09-29T20:35:14.694Z,99.90
2022-09-29T20:37:42.599Z,99.90
2022-09-29T20:40:10.324Z,99.90
2022-09-29T20:42:38.418Z,99.90
2022-09-29T20:45:06.064Z,99.90
2022-09-29T20:47:33.133Z,99.90
2022-09-29T20:49:59.800Z,99.90
2022-09-29T20:52:26.453Z,99.90
2022-09-29T20:54:53.187Z,99.90
2022-09-29T20:57:19.814Z,99.90
2022-09-29T20:59:47.327Z,99.90
2022-09-29T21:02:14.080Z,99.90
2022-09-29T21:04:42.452Z,99.90
2022-09-29T21:07:29.336Z,99.90
2022-09-29T21:09:56.026Z,99.90
2022-09-29T21:12:22.834Z,99.90
2022-09-29T21:14:49.853Z,99.90
2022-09-29T21:17:16.754Z,99.90
2022-09-29T21:19:43.640Z,99.90
2022-09-29T21:22:10.681Z,99.90
2022-09-29T21:24:39.265Z,99.90
2022-09-29T21:27:06.612Z,99.90
2022-09-29T21:29:33.798Z,99.90
2022-09-29T21:32:00.880Z,99.90
2022-09-29T21:34:27.788Z,99.90
2022-09-29T21:36:54.536Z,99.90
2022-09-29T21:39:21.878Z,99.90
2022-09-29T21:41:48.717Z,99.90
2022-09-29T21:44:21.603Z,99.90
2022-09-29T21:46:48.957Z,99.90
2022-09-29T21:49:16.669Z,99.90
2022-09-29T21:51:46.688Z,99.90
2022-09-29T21:54:16.452Z,99.90
2022-09-29T21:56:45.432Z,99.90
2022-09-29T21:59:15.403Z,99.90
2022-09-29T22:01:43.447Z,99.90
2022-09-29T22:04:10.992Z,99.90
2022-09-29T22:06:39.301Z,99.90
2022-09-29T22:09:07.941Z,99.90
2022-09-29T22:11:36.559Z,99.90
2022-09-29T22:14:03.866Z,99.90
2022-09-29T22:16:32.663Z,99.90
2022-09-29T22:19:32.778Z,99.90
2022-09-29T22:21:49.997Z,99.90
2022-09-29T22:24:16.753Z,99.90
2022-09-29T22:26:44.587Z,99.90
2022-09-29T22:29:11.551Z,99.90
2022-09-29T22:31:40.191Z,99.90
2022-09-29T22:34:07.833Z,99.90
2022-09-29T22:36:35.315Z,99.90
2022-09-29T22:39:03.772Z,99.90
2022-09-29T22:41:33.169Z,99.90
2022-09-29T22:44:00.833Z,99.90
2022-09-29T22:46:29.843Z,99.90
2022-09-29T22:48:57.270Z,99.90
2022-09-29T22:51:24.368Z,99.90
2022-09-29T22:53:51.706Z,99.90
2022-09-29T22:56:21.817Z,99.90
2022-09-29T22:58:49.577Z,99.90
2022-09-29T23:01:19.770Z,99.90
2022-09-29T23:03:48.860Z,99.90
2022-09-29T23:06:15.858Z,99.90
2022-09-29T23:08:43.000Z,99.90
2022-09-29T23:11:20.351Z,99.90
2022-09-29T23:13:47.898Z,99.90
2022-09-29T23:16:16.618Z,99.90
2022-09-29T23:18:45.540Z,99.90
2022-09-29T23:21:14.891Z,99.90
2022-09-29T23:23:41.694Z,99.90
2022-09-29T23:26:08.562Z,99.90
2022-09-29T23:28:35.771Z,99.90
2022-09-29T23:31:07.244Z,99.90
2022-09-29T23:33:34.259Z,99.90
2022-09-29T23:36:21.669Z,99.90
2022-09-29T23:39:07.314Z,99.90
2022-09-29T23:41:35.715Z,99.90
2022-09-29T23:44:05.288Z,99.90
2022-09-29T23:46:35.868Z,99.90
2022-09-29T23:49:04.430Z,99.90
2022-09-29T23:51:34.510Z,99.90
2022-09-29T23:54:01.261Z,99.90
2022-09-29T23:56:28.699Z,99.90
2022-09-29T23:58:55.885Z,99.90
